Skip to Main Content
SEARCH:
Location Air RH Dwp Precip Type Wind Speed Wind Gust Direction Pavement Temperature Date/Time
Hatem Bridge US 40 E/B 50 70 41 None 8 mph 12 mph N 51 - 51 1/18/2017 5:14:00 PM
I-270 at I-370 49 61 37 None Calm 9 mph E 51 - 52 1/18/2017 5:10:00 PM
I-270 at MD-109 48 64 37 None 8 mph 18 mph SW 49 - 51 1/18/2017 5:10:00 PM
I-495 at American Legion Bridge 51 61 38 None 4 mph 9 mph N 57 - 59 1/18/2017 5:10:00 PM
I-68 at MD-219 32 100 32 None 14 mph 26 mph W 34 - 37 1/18/2017 5:10:00 PM
I-68 at Savage Mt 34 97 33 None 6 mph 14 mph W 38 - 38 1/18/2017 5:10:00 PM
I-68 at Sideling Hill 42 80 36 None Calm 7 mph S 45 - 46 1/18/2017 5:10:00 PM
I-68 at WV Line 37 92 35 None Calm 6 mph W 39 - 39 1/18/2017 5:10:00 PM
I-695 at I-83 51 62 38 None Calm 7 mph W 53 - 53 1/18/2017 5:10:00 PM
I-70 at Fred-Wash Co. 43 79 37 None 7 mph 18 mph W 45 - 45 1/18/2017 5:10:00 PM
I-70 at I-695 50 63 38 None 4 mph 15 mph NW 52 - 55 1/18/2017 5:10:00 PM
I-70 at I-81 46 65 36 None 8 mph 21 mph NW 50 - 50 1/18/2017 5:10:00 PM
I-70 at MD-27 47 66 37 None Calm 10 mph W 52 - 53 1/18/2017 5:10:00 PM
I-70 at MD-32 49 63 37 None 4 mph 10 mph NW 51 - 51 1/18/2017 5:10:00 PM
I-83 at MD-137 49 70 40 None Calm 7 mph SW 51 - 51 1/18/2017 5:10:00 PM
I-895 at I-95 - - - No Data Available - - No Data Available -
I-95 at I-695 NE 52 59 38 None 4 mph 6 mph NW 53 - 54 1/18/2017 5:14:00 PM
I-95 at Patuxent River 52 60 38 None Calm 8 mph N 57 - 57 1/18/2017 5:10:00 PM
I-95 at Tydings Bridge 49 73 41 None Calm 7 mph SE 51 - 51 1/18/2017 5:10:00 PM
I-95/495 at I-295 55 53 38 None 6 mph 15 mph N 55 - 56 1/18/2017 5:10:00 PM
I-97 at MD-100 53 57 38 None 8 mph 18 mph N 57 - 58 1/18/2017 5:10:00 PM
I-97 at MD-32 52 56 37 None 13 mph 21 mph N 56 - 56 1/18/2017 5:10:00 PM
MD 20 at MD 21 49 76 42 None Calm 7 mph N 53 - 53 1/18/2017 5:10:00 PM
MD 231 at Patuxent River 54 55 39 None 12 mph 20 mph N 57 - 58 1/18/2017 5:10:00 PM
MD 260 at Cox Rd 53 61 40 Rain Calm 8 mph N 57 - 57 1/18/2017 5:10:00 PM
MD-135 at Salt Dome 32 100 32 None Calm 11 mph SW 37 - 37 1/18/2017 5:10:00 PM
MD-140 at MD-97 47 69 37 None 7 mph 15 mph W 51 - 51 1/18/2017 5:10:00 PM
MD-200 EB at Bonifant Rd 51 61 38 None 10 mph 19 mph NW 48 - 51 1/18/2017 5:13:00 PM
MD-200 WB at Muncaster Mill Rd 49 60 36 None Calm 10 mph N 49 - 53 1/18/2017 5:13:00 PM
MD-213 at Sassafras River 51 74 43 None 4 mph 8 mph N 49 - 49 1/18/2017 5:10:00 PM
MD-24 at Rock St Park 48 86 44 None Calm Calm NW 46 - 46 1/18/2017 5:10:00 PM
MD-30 at PA Line 46 76 39 None 9 mph 13 mph NW 48 - 48 1/18/2017 5:10:00 PM
MD-301 at MD-305 50 70 41 None 6 mph 9 mph NW 52 - 53 1/18/2017 5:10:00 PM
MD-33 at Knapps Narrows Drawbridge 47 76 40 None 8 mph 11 mph NW 54 - 54 1/18/2017 5:10:00 PM
MD-344 at MD-224 53 57 38 None Calm 14 mph NW 51 - 51 1/18/2017 5:10:00 PM
MD-4 at Patuxent River 52 67 42 None - - No Data Available 56 - 56 1/18/2017 5:10:00 PM
MD-404 at Choptank River 51 66 40 None 4 mph 11 mph N 53 - 54 1/18/2017 5:10:00 PM
MD-43 at MD-150 53 62 40 None Calm 9 mph NW 52 - 53 1/18/2017 5:10:00 PM
MD-51 at Oldtown Salt Dome 44 69 35 None 8 mph 16 mph SW 47 - 47 1/18/2017 5:10:00 PM
MD-64 at MD-418 44 72 36 None 11 mph 14 mph NW 48 - 49 1/18/2017 5:10:00 PM
US-1 at Baltimore / Harford Co. Line 50 71 41 None Calm 6 mph NW 48 - 50 1/18/2017 5:10:00 PM
US-1 at Conowingo Dam 48 79 42 None Calm Calm NW 50 - 50 1/18/2017 5:10:00 PM
US-13 at US-113 52 73 44 None 5 mph 11 mph N 52 - 54 1/18/2017 5:10:00 PM
US-13 at US-50 - - - No Data Available - - No Data Available -
US-15 at MD-140 47 63 35 None 7 mph 15 mph W 52 - 53 1/18/2017 5:10:00 PM
US-301 at MD-5 53 56 38 None Calm 9 mph NW 59 - 60 1/18/2017 5:10:00 PM
US-301 at Potomac 49 71 40 None 12 mph 15 mph N 54 - 55 1/18/2017 5:10:00 PM
US-301 on HWN Bridge 54 50 36 None 25 mph 27 mph NW 51 - 51 1/18/2017 5:11:00 PM
US-340 at MD-180 46 64 35 None 15 mph 21 mph NW 49 - 50 1/18/2017 5:10:00 PM
US-50 at Choptank 52 75 44 None 5 mph 7 mph NW 53 - 55 1/18/2017 5:10:00 PM
US-50 at I-95 53 57 39 None 4 mph 7 mph W 57 - 58 1/18/2017 5:10:00 PM
US-50 at MD-2 53 60 40 None 5 mph 9 mph W 55 - 56 1/18/2017 5:10:00 PM
US-50 at MD-331 53 69 43 None 7 mph 11 mph N 53 - 54 1/18/2017 5:10:00 PM
US-50 at OC Drawbridge 46 90 44 None 4 mph 8 mph N 50 - 50 1/18/2017 5:10:00 PM
US-50 at Table Rock Rd 32 100 32 None 6 mph 12 mph W 38 - 38 1/18/2017 5:10:00 PM
US-50 Kent Narrow Bridge 47 84 43 None 7 mph 15 mph N 51 - 52 1/18/2017 5:10:00 PM
WPL Pier 31 52 57 38 Rain 17 mph 17 mph N 54 - 54 1/18/2017 5:13:00 PM
Location Air RH Dwp Precip Type Wind Speed Wind Gust Direction Pavement Temperature Date/Time